createdAt,value
2023-04-27T00:00:22.769Z,7.73
2023-04-27T00:02:27.742Z,7.63
2023-04-27T00:04:31.873Z,7.55
2023-04-27T00:06:35.409Z,7.53
2023-04-27T00:08:38.648Z,7.47
2023-04-27T00:10:41.777Z,7.45
2023-04-27T00:12:44.742Z,7.40
2023-04-27T00:14:47.589Z,7.33
2023-04-27T00:16:51.879Z,7.28
2023-04-27T00:18:55.775Z,7.17
2023-04-27T00:20:58.692Z,7.16
2023-04-27T00:23:01.560Z,7.16
2023-04-27T00:25:05.341Z,7.10
2023-04-27T00:27:08.241Z,7.01
2023-04-27T00:29:12.905Z,6.95
2023-04-27T00:31:15.960Z,6.92
2023-04-27T00:33:20.231Z,6.90
2023-04-27T00:35:24.456Z,6.93
2023-04-27T00:37:27.517Z,6.91
2023-04-27T00:39:30.398Z,6.90
2023-04-27T00:41:33.291Z,6.90
2023-04-27T00:43:43.328Z,6.82
2023-04-27T00:45:46.314Z,6.74
2023-04-27T00:47:49.302Z,6.70
2023-04-27T00:49:53.834Z,6.70
2023-04-27T00:51:57.040Z,6.69
2023-04-27T00:54:01.666Z,6.64
2023-04-27T00:56:06.811Z,6.59
2023-04-27T00:58:10.139Z,6.49
2023-04-27T01:00:14.520Z,6.44
2023-04-27T01:02:17.921Z,6.34
2023-04-27T01:04:21.987Z,6.32
2023-04-27T01:06:28.226Z,6.32
2023-04-27T01:08:31.164Z,6.30
2023-04-27T01:10:34.042Z,6.25
2023-04-27T01:12:37.408Z,6.25
2023-04-27T01:14:41.380Z,6.17
2023-04-27T01:16:44.389Z,6.13
2023-04-27T01:18:47.701Z,6.11
2023-04-27T01:20:50.658Z,6.07
2023-04-27T01:22:54.944Z,6.04
2023-04-27T01:24:59.240Z,6.03
2023-04-27T01:27:02.631Z,6.05
2023-04-27T01:29:05.507Z,6.05
2023-04-27T01:31:08.422Z,6.00
2023-04-27T01:33:11.353Z,6.04
2023-04-27T01:35:16.106Z,5.99
2023-04-27T01:37:18.993Z,5.88
2023-04-27T01:39:22.041Z,5.82
2023-04-27T01:41:26.531Z,5.79
2023-04-27T01:43:29.405Z,5.75
2023-04-27T01:45:32.293Z,5.76
2023-04-27T01:47:36.311Z,5.75
2023-04-27T01:49:39.218Z,5.72
2023-04-27T01:51:42.155Z,5.71
2023-04-27T01:53:45.082Z,5.64
2023-04-27T01:55:47.903Z,5.68
2023-04-27T01:57:52.110Z,5.65
2023-04-27T01:59:54.974Z,5.62
2023-04-27T02:01:58.227Z,5.59
2023-04-27T02:04:01.341Z,5.61
2023-04-27T02:06:05.849Z,5.55
2023-04-27T02:08:08.690Z,5.50
2023-04-27T02:10:11.963Z,5.55
2023-04-27T02:12:14.867Z,5.56
2023-04-27T02:14:19.062Z,5.55
2023-04-27T02:16:23.599Z,5.52
2023-04-27T02:18:27.801Z,5.49
2023-04-27T02:20:31.262Z,5.47
2023-04-27T02:22:34.212Z,5.51
2023-04-27T02:24:37.652Z,5.43
2023-04-27T02:26:40.721Z,5.33
2023-04-27T02:28:44.318Z,5.31
2023-04-27T02:30:48.839Z,5.27
2023-04-27T02:32:52.052Z,5.20
2023-04-27T02:34:56.679Z,5.28
2023-04-27T02:36:59.889Z,5.31
2023-04-27T02:39:02.742Z,5.35
2023-04-27T02:41:05.844Z,5.36
2023-04-27T02:43:10.665Z,5.40
2023-04-27T02:45:14.540Z,5.44
2023-04-27T02:47:18.881Z,5.47
2023-04-27T02:49:21.718Z,5.45
2023-04-27T02:51:26.090Z,5.43
2023-04-27T02:53:29.394Z,5.44
2023-04-27T02:55:32.550Z,5.46
2023-04-27T02:57:35.459Z,5.48
2023-04-27T02:59:38.297Z,5.55
2023-04-27T03:01:41.241Z,5.53
2023-04-27T03:03:48.842Z,5.52
2023-04-27T03:05:51.784Z,5.38
2023-04-27T03:07:54.691Z,5.22
2023-04-27T03:09:57.480Z,5.41
2023-04-27T03:12:00.565Z,5.27
2023-04-27T03:14:03.416Z,5.36
2023-04-27T03:16:07.037Z,5.40
2023-04-27T03:18:09.946Z,5.40
2023-04-27T03:20:14.460Z,5.29
2023-04-27T03:22:17.329Z,5.26
2023-04-27T03:24:20.360Z,5.21
2023-04-27T03:26:24.861Z,5.12
2023-04-27T03:28:28.127Z,5.06
2023-04-27T03:30:31.432Z,4.99
2023-04-27T03:32:34.322Z,4.95
2023-04-27T03:34:37.710Z,4.92
2023-04-27T03:36:42.063Z,4.85
2023-04-27T03:38:46.399Z,4.84
2023-04-27T03:40:49.409Z,4.86
2023-04-27T03:42:52.262Z,4.88
2023-04-27T03:48:11.508Z,4.75
2023-04-27T03:50:14.507Z,4.83
2023-04-27T03:52:18.781Z,4.83
2023-04-27T03:54:22.358Z,4.85
2023-04-27T03:56:25.616Z,4.83
2023-04-27T03:58:28.487Z,4.85
2023-04-27T04:00:45.228Z,4.87
2023-04-27T04:02:48.360Z,4.82
2023-04-27T04:04:51.766Z,4.77
2023-04-27T04:06:54.730Z,4.71
2023-04-27T04:08:59.897Z,4.64
2023-04-27T04:11:02.858Z,4.64
2023-04-27T04:13:05.738Z,4.53
2023-04-27T04:15:09.238Z,4.44
2023-04-27T04:17:12.659Z,4.53
2023-04-27T04:19:17.161Z,4.54
2023-04-27T04:21:20.045Z,4.57
2023-04-27T04:23:23.765Z,4.62
2023-04-27T04:25:29.439Z,4.70
2023-04-27T04:27:33.637Z,4.75
2023-04-27T04:29:36.894Z,4.68
2023-04-27T04:31:42.240Z,4.61
2023-04-27T04:33:46.067Z,4.56
2023-04-27T04:35:51.837Z,4.50
2023-04-27T04:37:55.082Z,4.54
2023-04-27T04:39:58.071Z,4.58
2023-04-27T04:42:04.068Z,4.61
2023-04-27T04:44:08.188Z,4.63
2023-04-27T04:46:11.156Z,4.66
2023-04-27T04:48:16.454Z,4.69
2023-04-27T04:50:20.165Z,4.68
2023-04-27T04:52:23.195Z,4.78
2023-04-27T04:54:26.087Z,4.81
2023-04-27T04:56:31.001Z,4.89
2023-04-27T04:58:38.069Z,5.03
2023-04-27T05:00:41.136Z,5.21
2023-04-27T05:02:44.565Z,5.50
2023-04-27T05:04:47.604Z,5.86
2023-04-27T05:06:51.827Z,6.29
2023-04-27T05:08:55.049Z,6.74
2023-04-27T05:10:58.025Z,7.18
2023-04-27T05:13:00.998Z,7.61
2023-04-27T05:15:05.992Z,7.85
2023-04-27T05:17:09.044Z,8.46
2023-04-27T05:19:12.326Z,9.17
2023-04-27T05:21:17.172Z,9.70
2023-04-27T05:23:20.160Z,9.75
2023-04-27T05:25:23.057Z,10.95
2023-04-27T05:27:25.975Z,11.75
2023-04-27T05:29:29.057Z,11.93
2023-04-27T05:31:33.500Z,12.12
2023-04-27T05:33:37.511Z,12.87
2023-04-27T05:35:40.458Z,12.81
2023-04-27T05:37:43.939Z,12.50
2023-04-27T05:39:46.809Z,12.72
2023-04-27T05:41:49.745Z,12.69
2023-04-27T05:43:53.512Z,13.00
2023-04-27T05:45:56.865Z,12.90
2023-04-27T05:48:01.259Z,13.02
2023-04-27T05:50:04.719Z,13.33
2023-04-27T05:52:07.679Z,13.04
2023-04-27T05:54:11.949Z,13.35
2023-04-27T05:56:15.038Z,13.97
2023-04-27T05:58:18.240Z,14.21
2023-04-27T06:00:22.557Z,14.38
2023-04-27T06:02:25.682Z,14.01
2023-04-27T06:04:30.189Z,14.49
2023-04-27T06:06:34.030Z,14.21
2023-04-27T06:08:37.555Z,14.72
2023-04-27T06:10:40.600Z,15.14
2023-04-27T06:12:45.141Z,14.82
2023-04-27T06:14:49.689Z,15.02
2023-04-27T06:16:52.650Z,15.28
2023-04-27T06:18:55.736Z,15.93
2023-04-27T06:21:03.023Z,15.27
2023-04-27T06:23:07.633Z,15.43
2023-04-27T06:25:10.747Z,15.35
2023-04-27T06:27:14.188Z,15.06
2023-04-27T06:29:17.256Z,15.08
2023-04-27T06:31:21.384Z,16.15
2023-04-27T06:33:24.329Z,14.94
2023-04-27T06:35:28.659Z,15.19
2023-04-27T06:37:33.045Z,15.73
2023-04-27T06:39:36.956Z,15.47
2023-04-27T06:41:39.945Z,15.64
2023-04-27T06:43:53.488Z,15.50
2023-04-27T06:45:56.552Z,16.32
2023-04-27T06:47:59.517Z,15.59
2023-04-27T06:50:02.475Z,16.14
2023-04-27T06:52:06.606Z,15.01
2023-04-27T06:54:12.364Z,15.11
2023-04-27T06:56:15.864Z,15.53
2023-04-27T06:58:20.603Z,15.10
2023-04-27T07:00:23.860Z,16.10
2023-04-27T07:02:26.790Z,15.51
2023-04-27T07:04:30.370Z,16.07
2023-04-27T07:06:34.334Z,15.48
2023-04-27T07:08:37.772Z,15.68
2023-04-27T07:10:42.423Z,15.68
2023-04-27T07:12:46.830Z,15.70
2023-04-27T07:14:50.846Z,15.48
2023-04-27T07:16:53.839Z,16.12
2023-04-27T07:18:56.850Z,15.83
2023-04-27T07:20:59.791Z,16.53
2023-04-27T07:23:02.742Z,16.09
2023-04-27T07:25:06.824Z,17.65
2023-04-27T07:27:11.315Z,17.86
2023-04-27T07:29:26.394Z,18.31
2023-04-27T07:31:30.329Z,18.26
2023-04-27T07:33:33.864Z,18.20
2023-04-27T07:35:37.152Z,19.04
2023-04-27T07:37:40.554Z,19.87
2023-04-27T07:39:43.522Z,19.10
2023-04-27T07:41:46.706Z,19.06
2023-04-27T07:43:51.994Z,17.84
2023-04-27T07:45:55.669Z,18.69
2023-04-27T07:48:00.419Z,18.78
2023-04-27T07:50:04.521Z,17.09
2023-04-27T07:52:07.474Z,18.42
2023-04-27T07:54:10.381Z,19.09
2023-04-27T07:56:13.351Z,19.54
2023-04-27T07:58:16.419Z,19.25
2023-04-27T08:00:22.069Z,20.22
2023-04-27T08:02:25.214Z,19.85
2023-04-27T08:04:28.701Z,20.40
2023-04-27T08:06:32.360Z,21.21
2023-04-27T08:08:35.737Z,21.86
2023-04-27T08:10:39.589Z,20.49
2023-04-27T08:12:42.607Z,19.46
2023-04-27T08:14:45.797Z,19.36
2023-04-27T08:16:51.772Z,19.32
2023-04-27T08:18:54.756Z,19.86
2023-04-27T08:20:57.614Z,19.85
2023-04-27T08:23:02.201Z,20.55
2023-04-27T08:25:06.090Z,21.05
2023-04-27T08:27:09.388Z,20.11
2023-04-27T08:29:24.175Z,20.28
2023-04-27T08:31:30.809Z,19.31
2023-04-27T08:33:35.214Z,19.42
2023-04-27T08:35:38.408Z,20.19
2023-04-27T08:37:41.693Z,19.67
2023-04-27T08:39:44.675Z,20.29
2023-04-27T08:41:47.591Z,19.96
2023-04-27T08:43:51.212Z,19.48
2023-04-27T08:45:54.248Z,20.66
2023-04-27T08:47:57.280Z,19.81
2023-04-27T08:50:03.485Z,20.21
2023-04-27T08:52:12.480Z,18.95
2023-04-27T08:54:15.481Z,18.40
2023-04-27T08:56:18.914Z,18.77
2023-04-27T08:58:21.860Z,18.22
2023-04-27T09:00:26.124Z,19.15
2023-04-27T09:02:30.248Z,19.04
2023-04-27T09:04:39.788Z,19.71
2023-04-27T09:06:44.148Z,18.93
2023-04-27T09:08:48.301Z,19.92
2023-04-27T09:10:52.644Z,19.52
2023-04-27T09:12:57.242Z,18.17
2023-04-27T09:15:02.127Z,18.47
2023-04-27T09:17:05.018Z,18.08
2023-04-27T09:19:07.908Z,17.53
2023-04-27T09:21:11.104Z,17.74
2023-04-27T09:23:29.375Z,17.50
2023-04-27T09:25:33.909Z,17.69
2023-04-27T09:27:39.363Z,18.07
2023-04-27T09:29:42.656Z,17.18
2023-04-27T09:31:45.690Z,17.17
2023-04-27T09:33:56.714Z,17.57
2023-04-27T09:36:00.744Z,17.63
2023-04-27T09:38:03.833Z,17.75
2023-04-27T09:40:11.076Z,17.78
2023-04-27T09:42:15.926Z,15.95
2023-04-27T09:44:20.494Z,15.40
2023-04-27T09:46:24.510Z,15.57
2023-04-27T09:48:27.947Z,16.67
2023-04-27T09:50:31.432Z,16.06
2023-04-27T09:52:35.660Z,16.40
2023-04-27T09:54:38.837Z,16.71
2023-04-27T09:56:52.501Z,16.94
2023-04-27T09:59:19.496Z,16.61
2023-04-27T10:01:28.705Z,17.06
2023-04-27T10:03:39.014Z,16.73
2023-04-27T10:05:54.737Z,17.28
2023-04-27T10:07:57.758Z,17.10
2023-04-27T10:10:03.299Z,16.89
2023-04-27T10:12:18.196Z,16.18
2023-04-27T10:14:23.750Z,16.73
2023-04-27T10:16:27.034Z,17.13
2023-04-27T10:18:32.069Z,17.60
2023-04-27T10:20:38.070Z,17.54
2023-04-27T10:22:42.015Z,16.88
2023-04-27T10:24:50.541Z,17.22
2023-04-27T10:26:53.724Z,17.36
2023-04-27T10:29:07.518Z,18.23
2023-04-27T10:31:11.918Z,18.51
2023-04-27T10:33:18.733Z,18.50
2023-04-27T10:35:22.814Z,18.98
2023-04-27T10:37:30.326Z,19.06
2023-04-27T10:39:47.022Z,19.42
2023-04-27T10:41:53.581Z,19.19
2023-04-27T10:43:56.573Z,19.97
2023-04-27T10:46:11.790Z,19.45
2023-04-27T10:48:16.344Z,19.20
2023-04-27T10:50:19.388Z,18.50
2023-04-27T10:52:22.318Z,18.28
2023-04-27T10:54:27.693Z,17.50
2023-04-27T10:56:30.712Z,17.38
2023-04-27T11:00:45.015Z,17.32
2023-04-27T11:02:49.797Z,17.43
2023-04-27T11:04:53.338Z,18.63
2023-04-27T11:06:56.501Z,19.33
2023-04-27T11:09:00.481Z,19.70
2023-04-27T11:11:03.793Z,19.50
2023-04-27T11:13:11.363Z,19.63
2023-04-27T11:15:14.667Z,19.47
2023-04-27T11:17:18.414Z,20.14
2023-04-27T11:19:22.692Z,20.34
2023-04-27T11:21:25.977Z,20.30
2023-04-27T11:23:30.366Z,19.87
2023-04-27T11:25:33.499Z,19.06
2023-04-27T11:27:40.760Z,19.22
2023-04-27T11:29:43.685Z,19.20
2023-04-27T11:31:49.068Z,19.45
2023-04-27T11:33:52.878Z,19.16
2023-04-27T11:35:58.525Z,19.49
2023-04-27T11:38:01.849Z,19.30
2023-04-27T11:40:05.745Z,19.71
2023-04-27T11:42:22.515Z,19.51
2023-04-27T11:44:28.719Z,18.23
2023-04-27T11:46:32.051Z,18.75
2023-04-27T11:48:37.972Z,18.79
2023-04-27T11:50:40.992Z,18.69
2023-04-27T11:52:49.887Z,18.87
2023-04-27T11:54:56.497Z,18.68
2023-04-27T11:57:06.583Z,18.93
2023-04-27T11:59:20.218Z,19.31
2023-04-27T12:01:34.820Z,19.41
2023-04-27T12:03:41.581Z,19.75
2023-04-27T12:05:50.044Z,19.97
2023-04-27T12:07:54.889Z,19.82
2023-04-27T12:10:00.639Z,20.35
2023-04-27T12:12:04.364Z,19.41
2023-04-27T12:14:08.092Z,19.56
2023-04-27T12:16:11.426Z,19.75
2023-04-27T12:18:14.496Z,19.70
2023-04-27T12:20:18.494Z,19.47
2023-04-27T12:22:21.612Z,20.04
2023-04-27T12:24:25.987Z,19.75
2023-04-27T12:26:29.550Z,19.62
2023-04-27T12:28:32.449Z,20.03
2023-04-27T12:30:36.210Z,20.27
2023-04-27T12:32:39.722Z,19.93
2023-04-27T12:34:43.720Z,19.70
2023-04-27T12:36:48.530Z,19.89
2023-04-27T12:38:52.726Z,19.82
2023-04-27T12:40:57.241Z,20.01
2023-04-27T12:43:01.360Z,20.09
2023-04-27T12:45:05.917Z,20.19
2023-04-27T12:47:09.268Z,20.37
2023-04-27T12:49:12.994Z,19.18
2023-04-27T12:51:16.830Z,19.21
2023-04-27T12:53:21.756Z,19.30
2023-04-27T12:57:36.141Z,18.79
2023-04-27T12:59:39.345Z,19.46
2023-04-27T13:01:42.334Z,19.83
2023-04-27T13:03:46.299Z,20.21
2023-04-27T13:05:49.593Z,19.51
2023-04-27T13:07:52.484Z,20.01
2023-04-27T13:09:55.606Z,19.80
2023-04-27T13:12:00.724Z,19.43
2023-04-27T13:14:06.299Z,20.05
2023-04-27T13:16:10.177Z,20.22
2023-04-27T13:18:13.410Z,20.58
2023-04-27T13:20:16.782Z,20.63
2023-04-27T13:22:21.079Z,20.31
2023-04-27T13:24:24.675Z,20.38
2023-04-27T13:26:28.859Z,20.47
2023-04-27T13:28:31.780Z,20.50
2023-04-27T13:30:36.304Z,20.71
2023-04-27T13:32:40.815Z,20.77
2023-04-27T13:34:43.890Z,21.20
2023-04-27T13:36:48.903Z,21.66
2023-04-27T13:38:52.589Z,21.59
2023-04-27T13:40:55.610Z,21.76
2023-04-27T13:42:58.738Z,21.48
2023-04-27T13:45:02.106Z,20.70
2023-04-27T13:47:08.079Z,21.00
2023-04-27T13:49:11.620Z,20.92
2023-04-27T13:51:15.911Z,21.30
2023-04-27T13:53:20.082Z,21.30
2023-04-27T13:55:23.112Z,21.18
2023-04-27T13:57:26.458Z,20.43
2023-04-27T13:59:31.483Z,20.27
2023-04-27T14:01:34.856Z,20.40
2023-04-27T14:03:42.541Z,20.77
2023-04-27T14:05:48.455Z,20.86
2023-04-27T14:07:51.612Z,20.95
2023-04-27T14:09:54.867Z,20.83
2023-04-27T14:11:58.273Z,20.70
2023-04-27T14:14:01.221Z,20.76
2023-04-27T14:16:04.413Z,19.65
2023-04-27T14:18:08.760Z,19.06
2023-04-27T14:20:13.382Z,18.71
2023-04-27T14:22:16.482Z,18.74
2023-04-27T14:24:19.524Z,18.62
2023-04-27T14:26:22.420Z,18.94
2023-04-27T14:28:25.614Z,18.44
2023-04-27T14:30:28.792Z,18.59
2023-04-27T14:32:32.022Z,18.64
2023-04-27T14:34:35.099Z,19.04
2023-04-27T14:36:39.376Z,19.42
2023-04-27T14:38:42.663Z,19.57
2023-04-27T14:40:46.906Z,19.21
2023-04-27T14:42:49.880Z,19.34
2023-04-27T14:44:52.853Z,18.96
2023-04-27T14:46:56.307Z,19.00
2023-04-27T14:48:59.434Z,19.11
2023-04-27T14:51:02.724Z,19.12
2023-04-27T14:53:07.212Z,18.17
2023-04-27T14:55:11.420Z,17.40
2023-04-27T14:57:14.475Z,17.41
2023-04-27T14:59:17.783Z,17.92
2023-04-27T15:01:20.745Z,18.21
2023-04-27T15:03:24.140Z,17.77
2023-04-27T15:05:27.281Z,17.12
2023-04-27T15:07:30.371Z,17.39
2023-04-27T15:09:34.952Z,17.53
2023-04-27T15:11:38.915Z,17.60
2023-04-27T15:13:41.865Z,17.11
2023-04-27T15:15:46.653Z,17.54
2023-04-27T15:17:49.641Z,17.60
2023-04-27T15:19:52.736Z,17.33
2023-04-27T15:21:56.036Z,17.00
2023-04-27T15:23:58.964Z,16.98
2023-04-27T15:26:03.267Z,17.02
2023-04-27T15:28:06.431Z,17.22
2023-04-27T15:30:09.930Z,17.26
2023-04-27T15:32:12.876Z,17.28
2023-04-27T15:34:17.415Z,17.17
2023-04-27T15:36:22.859Z,17.42
2023-04-27T15:38:26.361Z,17.14
2023-04-27T15:40:29.595Z,17.28
2023-04-27T15:42:34.117Z,17.25
2023-04-27T15:44:38.572Z,17.03
2023-04-27T15:46:41.640Z,16.69
2023-04-27T15:48:44.763Z,16.46
2023-04-27T15:50:48.113Z,16.53
2023-04-27T15:52:51.303Z,16.70
2023-04-27T15:54:54.703Z,16.67
2023-04-27T15:57:01.135Z,16.77
2023-04-27T15:59:06.833Z,16.30
2023-04-27T16:01:09.823Z,16.46
2023-04-27T16:03:14.300Z,16.32
2023-04-27T16:05:17.713Z,16.65
2023-04-27T16:07:20.696Z,16.71
2023-04-27T16:09:24.372Z,16.58
2023-04-27T16:11:27.311Z,16.73
2023-04-27T16:13:30.397Z,16.81
2023-04-27T16:15:35.323Z,16.88
2023-04-27T16:17:38.778Z,16.92
2023-04-27T16:19:41.945Z,16.97
2023-04-27T16:21:45.703Z,16.64
2023-04-27T16:23:48.917Z,16.71
2023-04-27T16:25:51.929Z,16.41
2023-04-27T16:27:55.014Z,16.14
2023-04-27T16:29:57.968Z,16.27
2023-04-27T16:32:05.443Z,16.41
2023-04-27T16:34:09.381Z,16.22
2023-04-27T16:36:12.572Z,15.71
2023-04-27T16:38:15.540Z,15.89
2023-04-27T16:40:21.144Z,15.68
2023-04-27T16:42:26.238Z,15.72
2023-04-27T16:44:39.146Z,15.82
2023-04-27T16:46:42.579Z,15.98
2023-04-27T16:48:46.949Z,15.76
2023-04-27T16:50:50.031Z,15.65
2023-04-27T16:52:55.844Z,15.88
2023-04-27T16:54:58.887Z,15.84
2023-04-27T16:57:02.559Z,15.92
2023-04-27T16:59:07.667Z,15.84
2023-04-27T17:01:10.874Z,15.34
2023-04-27T17:03:16.289Z,15.55
2023-04-27T17:05:21.138Z,15.53
2023-04-27T17:07:25.507Z,15.52
2023-04-27T17:09:29.083Z,15.47
2023-04-27T17:11:32.145Z,15.43
2023-04-27T17:13:35.471Z,15.32
2023-04-27T17:15:38.570Z,15.05
2023-04-27T17:17:41.665Z,14.85
2023-04-27T17:19:44.977Z,14.80
2023-04-27T17:21:49.205Z,14.75
2023-04-27T17:23:53.540Z,14.70
2023-04-27T17:25:58.877Z,14.70
2023-04-27T17:28:02.066Z,14.52
2023-04-27T17:30:08.067Z,14.39
2023-04-27T17:32:12.638Z,14.45
2023-04-27T17:34:15.944Z,14.24
2023-04-27T17:36:18.976Z,14.30
2023-04-27T17:38:23.352Z,14.47
2023-04-27T17:40:26.520Z,14.52
2023-04-27T17:42:29.506Z,14.67
2023-04-27T17:44:32.481Z,14.50
2023-04-27T17:46:35.645Z,14.36
2023-04-27T17:48:38.821Z,14.34
2023-04-27T17:50:44.408Z,14.38
2023-04-27T17:52:51.022Z,14.26
2023-04-27T17:54:55.888Z,14.27
2023-04-27T17:56:59.007Z,14.33
2023-04-27T17:59:02.138Z,14.28
2023-04-27T18:01:06.039Z,14.18
2023-04-27T18:03:09.204Z,14.19
2023-04-27T18:05:12.480Z,14.16
2023-04-27T18:07:18.511Z,14.02
2023-04-27T18:09:21.833Z,13.95
2023-04-27T18:11:26.495Z,13.72
2023-04-27T18:13:31.876Z,13.64
2023-04-27T18:15:34.896Z,13.69
2023-04-27T18:17:37.859Z,13.65
2023-04-27T18:19:41.273Z,13.70
2023-04-27T18:21:44.247Z,13.67
2023-04-27T18:23:47.816Z,13.57
2023-04-27T18:25:51.411Z,13.62
2023-04-27T18:27:56.505Z,13.57
2023-04-27T18:29:59.534Z,13.49
2023-04-27T18:32:05.815Z,13.58
2023-04-27T18:34:08.899Z,13.71
2023-04-27T18:36:12.544Z,13.58
2023-04-27T18:38:15.654Z,13.67
2023-04-27T18:40:21.938Z,13.50
2023-04-27T18:42:25.258Z,13.43
2023-04-27T18:44:31.923Z,13.43
2023-04-27T18:46:34.945Z,13.43
2023-04-27T18:48:38.002Z,13.33
2023-04-27T18:50:41.095Z,13.39
2023-04-27T18:52:44.144Z,13.44
2023-04-27T18:54:47.082Z,13.45
2023-04-27T18:56:53.166Z,13.39
2023-04-27T18:58:58.077Z,13.27
2023-04-27T19:01:02.687Z,13.32
2023-04-27T19:03:07.037Z,13.28
2023-04-27T19:05:15.562Z,13.30
2023-04-27T19:07:18.638Z,13.21
2023-04-27T19:09:22.409Z,13.28
2023-04-27T19:11:26.440Z,13.26
2023-04-27T19:13:30.334Z,13.13
2023-04-27T19:15:33.650Z,13.03
2023-04-27T19:17:38.826Z,13.05
2023-04-27T19:19:43.687Z,13.04
2023-04-27T19:21:47.850Z,12.96
2023-04-27T19:23:52.469Z,12.99
2023-04-27T19:26:02.769Z,12.94
2023-04-27T19:28:13.126Z,12.91
2023-04-27T19:30:17.243Z,12.95
2023-04-27T19:32:25.380Z,12.95
2023-04-27T19:34:33.714Z,12.92
2023-04-27T19:36:36.867Z,12.94
2023-04-27T19:38:40.122Z,12.98
2023-04-27T19:40:44.392Z,13.02
2023-04-27T19:42:47.720Z,12.94
2023-04-27T19:44:50.625Z,12.96
2023-04-27T19:46:53.997Z,12.89
2023-04-27T19:48:59.075Z,12.91
2023-04-27T19:51:04.474Z,12.82
2023-04-27T19:53:08.091Z,12.92
2023-04-27T19:55:11.462Z,12.97
2023-04-27T19:57:14.361Z,12.93
2023-04-27T19:59:17.230Z,12.99
2023-04-27T20:01:22.178Z,12.85
2023-04-27T20:03:25.280Z,12.91
2023-04-27T20:05:28.767Z,12.86
2023-04-27T20:07:33.311Z,12.91
2023-04-27T20:09:36.614Z,12.82
2023-04-27T20:11:39.545Z,12.91
2023-04-27T20:13:42.484Z,12.88
2023-04-27T20:15:46.825Z,12.88
2023-04-27T20:17:49.970Z,12.74
2023-04-27T20:19:56.132Z,12.76
2023-04-27T20:22:00.976Z,12.75
2023-04-27T20:24:07.957Z,12.94
2023-04-27T20:26:13.722Z,12.85
2023-04-27T20:28:16.899Z,12.84
2023-04-27T20:30:19.973Z,12.87
2023-04-27T20:32:23.085Z,12.94
2023-04-27T20:34:27.931Z,12.97
2023-04-27T20:36:32.052Z,13.10
2023-04-27T20:38:35.152Z,13.05
2023-04-27T20:40:42.049Z,13.09
2023-04-27T20:42:45.776Z,13.06
2023-04-27T20:44:49.008Z,13.02
2023-04-27T20:46:51.977Z,13.02
2023-04-27T20:48:54.940Z,13.01
2023-04-27T20:50:58.155Z,12.82
2023-04-27T20:53:02.142Z,12.86
2023-04-27T20:55:05.646Z,12.75
2023-04-27T20:57:13.742Z,12.66
2023-04-27T20:59:16.973Z,12.79
2023-04-27T21:01:19.917Z,12.85
2023-04-27T21:03:23.003Z,12.79
2023-04-27T21:05:26.123Z,12.86
2023-04-27T21:07:29.012Z,12.86
2023-04-27T21:09:32.154Z,12.79
2023-04-27T21:11:35.318Z,12.80
2023-04-27T21:13:39.711Z,12.75
2023-04-27T21:15:42.658Z,12.75
2023-04-27T21:17:45.665Z,12.79
2023-04-27T21:19:48.606Z,12.73
2023-04-27T21:21:51.781Z,12.65
2023-04-27T21:24:06.711Z,12.51
2023-04-27T21:26:17.530Z,12.53
2023-04-27T21:28:20.405Z,12.59
2023-04-27T21:30:25.005Z,12.60
2023-04-27T21:32:28.208Z,12.60
2023-04-27T21:34:31.122Z,12.42
2023-04-27T21:36:34.027Z,12.47
2023-04-27T21:38:37.042Z,12.50
2023-04-27T21:40:39.969Z,12.53
2023-04-27T21:42:43.035Z,12.52
2023-04-27T21:44:46.862Z,12.42
2023-04-27T21:46:51.873Z,12.52
2023-04-27T21:48:54.883Z,12.38
2023-04-27T21:50:57.764Z,12.40
2023-04-27T21:53:00.667Z,12.31
2023-04-27T21:55:04.921Z,12.35
2023-04-27T21:57:07.874Z,12.45
2023-04-27T21:59:10.894Z,12.40
2023-04-27T22:01:14.348Z,12.43
2023-04-27T22:03:18.826Z,12.38
2023-04-27T22:05:21.829Z,12.47
2023-04-27T22:07:26.555Z,12.41
2023-04-27T22:09:29.726Z,12.40
2023-04-27T22:11:32.639Z,12.36
2023-04-27T22:13:35.546Z,12.48
2023-04-27T22:15:38.495Z,12.43
2023-04-27T22:17:41.426Z,12.36
2023-04-27T22:19:45.706Z,12.37
2023-04-27T22:21:48.602Z,12.44
2023-04-27T22:23:51.497Z,12.30
2023-04-27T22:25:54.374Z,12.41
2023-04-27T22:27:57.270Z,12.44
2023-04-27T22:30:00.221Z,12.47
2023-04-27T22:32:03.247Z,12.45
2023-04-27T22:34:06.655Z,12.42
2023-04-27T22:36:12.090Z,12.40
2023-04-27T22:38:15.461Z,12.31
2023-04-27T22:40:18.600Z,12.33
2023-04-27T22:42:21.788Z,12.44
2023-04-27T22:44:24.698Z,12.37
2023-04-27T22:46:27.628Z,12.42
2023-04-27T22:48:30.683Z,12.29
2023-04-27T22:50:33.694Z,12.45
2023-04-27T22:52:39.205Z,12.44
2023-04-27T22:54:42.085Z,12.43
2023-04-27T22:56:45.008Z,12.48
2023-04-27T22:58:47.927Z,12.41
2023-04-27T23:00:50.877Z,12.39
2023-04-27T23:02:54.026Z,12.44
2023-04-27T23:04:57.215Z,12.44
2023-04-27T23:07:00.400Z,12.31
2023-04-27T23:09:05.531Z,12.33
2023-04-27T23:11:09.067Z,12.35
2023-04-27T23:13:12.239Z,12.30
2023-04-27T23:15:15.224Z,12.33
2023-04-27T23:17:18.097Z,12.20
2023-04-27T23:19:21.050Z,12.35
2023-04-27T23:21:23.892Z,12.39
2023-04-27T23:23:26.817Z,12.36
2023-04-27T23:25:33.035Z,12.44
2023-04-27T23:27:36.209Z,12.29
2023-04-27T23:29:39.424Z,12.35
2023-04-27T23:31:43.374Z,12.33
2023-04-27T23:33:46.290Z,12.15
2023-04-27T23:35:49.262Z,12.12
2023-04-27T23:37:52.150Z,11.99
2023-04-27T23:39:55.318Z,11.89
2023-04-27T23:41:59.597Z,11.92
2023-04-27T23:44:02.809Z,12.04
2023-04-27T23:46:05.916Z,12.02
2023-04-27T23:48:09.039Z,12.08
2023-04-27T23:50:12.062Z,12.13
2023-04-27T23:52:14.971Z,11.97
2023-04-27T23:54:18.064Z,11.96
2023-04-27T23:56:21.182Z,11.96
2023-04-27T23:58:26.103Z,12.04
